»·PEaware :: N5515 KSNA-KSBA

N5515 :: KSNA-KSBA

FLIGHT INFORMATION

Flight Status: Arrived
Operator: Privately registered:
United States
More flights under this callsign
Pilot: Justo R. (27545)
Aircraft: Unknown
(P28U)
More flights by this aircraft type
Origin: KSNA John Wayne-Orange Co
United States
Destination: KSBA Santa Barbara Mun
United States
More flights between these airports :: More routes between these airports
Route: SLI V23 LAX V299 VTU VTU282R KWANG
File this flight plan on PilotEdge
Remarks: CSTP21
Altitude:
(Current/Filed)
6,000ft
Speed:
(Current/Filed)
140kts
Departed: 10-Jan-20 09:57 AM
Arrived: 10-Jan-20 11:09 AM
Distance/Time
Traveled:
108nm/1:12
Distance/Time
To Go:
Arrived

Flight Plot

Page will automatically refresh every two minutes.


Map Options




Map Legend


Flown Route
Filed Route
Departure Airport
Arrival Airport
Navaid (VOR, NDB)
Fix

Horizontal Profiles

Position Reports

Time Latitude Longitude Heading Altitude Ground
Speed
10-Jan-20 09:38 33.671516 -117.867200 26 59ft 0kts
10-Jan-20 09:39 33.671516 -117.867200 26 59ft 0kts
10-Jan-20 09:40 33.671516 -117.867200 26 59ft 0kts
10-Jan-20 09:41 33.671516 -117.867200 26 59ft 0kts
10-Jan-20 09:42 33.671516 -117.867200 26 59ft 0kts
10-Jan-20 09:43 33.671516 -117.867200 26 59ft 0kts
10-Jan-20 09:44 33.671516 -117.867200 26 59ft 0kts
10-Jan-20 09:45 33.671516 -117.867200 26 59ft 0kts
10-Jan-20 09:46 33.671516 -117.867200 26 59ft 0kts
10-Jan-20 09:47 33.671516 -117.867200 26 59ft 0kts
10-Jan-20 09:48 33.671516 -117.867200 26 59ft 0kts
10-Jan-20 09:49 33.671516 -117.867200 26 59ft 0kts
10-Jan-20 09:50 33.671783 -117.867548 296 59ft 0kts
10-Jan-20 09:51 33.672351 -117.867946 28 59ft 8kts
10-Jan-20 09:52 33.674390 -117.866882 27 59ft 12kts
10-Jan-20 09:53 33.677409 -117.864980 27 59ft 11kts
10-Jan-20 09:54 33.679952 -117.863589 293 59ft 1kts
10-Jan-20 09:54 33.679959 -117.863608 293 59ft 0kts
10-Jan-20 09:56 33.679972 -117.863640 295 59ft 3kts
10-Jan-20 09:57 33.678706 -117.865055 207 59ft 59kts
10-Jan-20 09:58 33.660750 -117.882426 231 1097ft 94kts
10-Jan-20 09:59 33.643288 -117.907664 232 2062ft 115kts
10-Jan-20 09:59 33.626763 -117.931245 234 2925ft 111kts
10-Jan-20 10:00 33.607142 -117.960344 234 3900ft 113kts
10-Jan-20 10:02 33.608041 -117.998039 306 4963ft 101kts
10-Jan-20 10:02 33.620656 -118.021617 314 5694ft 100kts
10-Jan-20 10:03 33.641364 -118.047087 322 6014ft 114kts
10-Jan-20 10:05 33.668407 -118.079022 322 6068ft 121kts
10-Jan-20 10:05 33.689564 -118.102422 323 5970ft 124kts
10-Jan-20 10:06 33.714876 -118.129015 325 6019ft 119kts
10-Jan-20 10:07 33.740741 -118.154207 326 6038ft 119kts
10-Jan-20 10:08 33.766717 -118.179320 323 6024ft 121kts
10-Jan-20 10:09 33.788567 -118.210735 307 5933ft 129kts
10-Jan-20 10:10 33.809291 -118.244368 313 5855ft 127kts
10-Jan-20 10:11 33.830298 -118.276393 313 5997ft 120kts
10-Jan-20 10:12 33.851540 -118.308363 314 6051ft 122kts
10-Jan-20 10:13 33.873526 -118.341265 314 5979ft 126kts
10-Jan-20 10:14 33.895631 -118.374322 314 5959ft 126kts
10-Jan-20 10:15 33.917768 -118.407193 314 5929ft 127kts
10-Jan-20 10:16 33.934858 -118.444089 294 5936ft 128kts
10-Jan-20 10:17 33.947381 -118.484289 295 5921ft 126kts
10-Jan-20 10:18 33.959229 -118.524068 294 5970ft 123kts
10-Jan-20 10:19 33.970742 -118.563766 294 5975ft 127kts
10-Jan-20 10:20 33.982237 -118.604132 294 6026ft 127kts
10-Jan-20 10:21 33.993718 -118.644750 294 6063ft 128kts
10-Jan-20 10:22 34.004959 -118.685685 293 6102ft 128kts
10-Jan-20 10:23 34.016446 -118.727114 294 6077ft 129kts
10-Jan-20 10:24 34.032286 -118.765702 303 5985ft 131kts
10-Jan-20 10:25 34.046524 -118.806299 296 5897ft 129kts
10-Jan-20 10:26 34.058814 -118.846679 295 5893ft 127kts
10-Jan-20 10:27 34.070404 -118.886235 294 5968ft 125kts
10-Jan-20 10:28 34.081784 -118.925758 294 6000ft 124kts
10-Jan-20 10:29 34.093025 -118.965202 294 6023ft 124kts
10-Jan-20 10:30 34.104251 -119.004648 295 6057ft 123kts
10-Jan-20 10:31 34.116662 -119.043051 299 6106ft 121kts
10-Jan-20 10:32 34.130212 -119.080642 299 6137ft 122kts
10-Jan-20 10:33 34.145665 -119.118547 300 5982ft 126kts
10-Jan-20 10:34 34.160794 -119.157096 302 5873ft 126kts
10-Jan-20 10:35 34.175999 -119.194675 303 5886ft 123kts
10-Jan-20 10:36 34.191016 -119.231348 303 6016ft 121kts
10-Jan-20 10:37 34.205984 -119.267876 304 6124ft 123kts
10-Jan-20 10:38 34.221872 -119.306311 304 6001ft 130kts
10-Jan-20 10:39 34.237889 -119.345055 304 5946ft 127kts
10-Jan-20 10:40 34.254143 -119.382876 305 5929ft 127kts
10-Jan-20 10:41 34.270605 -119.420744 305 5916ft 127kts
10-Jan-20 10:42 34.287060 -119.458134 305 5933ft 125kts
10-Jan-20 10:43 34.303599 -119.494983 305 5963ft 124kts
10-Jan-20 10:44 34.308778 -119.536152 267 5989ft 131kts
10-Jan-20 10:45 34.303537 -119.580731 270 5971ft 132kts
10-Jan-20 10:46 34.299566 -119.625012 271 5979ft 132kts
10-Jan-20 10:47 34.295752 -119.669371 270 5998ft 132kts
10-Jan-20 10:48 34.292003 -119.713341 270 6017ft 131kts
10-Jan-20 10:49 34.288388 -119.757335 270 6036ft 130kts
10-Jan-20 10:50 34.284842 -119.801110 270 6046ft 130kts
10-Jan-20 10:51 34.281309 -119.844864 270 6056ft 130kts
10-Jan-20 10:52 34.277533 -119.888656 270 6064ft 131kts
10-Jan-20 10:53 34.273727 -119.932435 270 6080ft 130kts
10-Jan-20 10:54 34.270056 -119.976137 270 6085ft 130kts
10-Jan-20 10:55 34.266391 -120.019933 269 6089ft 131kts
10-Jan-20 10:56 34.266594 -120.063198 318 5866ft 134kts
10-Jan-20 10:57 34.299299 -120.073269 348 5672ft 117kts
10-Jan-20 10:58 34.331559 -120.081126 350 5085ft 118kts
10-Jan-20 10:59 34.364010 -120.087787 352 4546ft 117kts
10-Jan-20 11:00 34.398115 -120.089659 3 3748ft 127kts
10-Jan-20 11:01 34.425626 -120.073087 90 3175ft 124kts
10-Jan-20 11:02 34.421047 -120.033463 80 2937ft 114kts
10-Jan-20 11:03 34.424702 -119.994864 86 2546ft 118kts
10-Jan-20 11:04 34.424359 -119.957409 78 1756ft 107kts
10-Jan-20 11:05 34.426273 -119.924239 83 1157ft 97kts
10-Jan-20 11:06 34.426734 -119.893650 88 688ft 82kts
10-Jan-20 11:07 34.427237 -119.864865 88 224ft 85kts
10-Jan-20 11:08 34.427703 -119.845049 87 16ft 27kts
10-Jan-20 11:09 34.428814 -119.839010 347 16ft 8kts
10-Jan-20 11:10 34.431559 -119.839664 70 16ft 0kts

Navigation Log

Ident Type
Flight plan parsing failed, navigation log unavailable